createdAt,value
2023-03-11T00:01:23.354Z,991.3
2023-03-11T00:06:23.149Z,991.3
2023-03-11T00:11:23.269Z,991.2
2023-03-11T00:16:23.265Z,991.2
2023-03-11T00:21:23.224Z,991.1
2023-03-11T00:26:23.143Z,991.1
2023-03-11T00:31:23.292Z,991.0
2023-03-11T00:36:23.107Z,991.1
2023-03-11T00:41:23.093Z,991.1
2023-03-11T00:46:23.305Z,990.9
2023-03-11T00:51:23.096Z,990.9
2023-03-11T00:56:23.145Z,990.9
2023-03-11T01:01:23.455Z,990.9
2023-03-11T01:06:23.482Z,990.8
2023-03-11T01:11:23.078Z,990.9
2023-03-11T01:16:23.190Z,990.8
2023-03-11T01:21:23.031Z,990.8
2023-03-11T01:26:23.072Z,990.7
2023-03-11T01:31:23.171Z,990.8
2023-03-11T01:36:22.993Z,990.7
2023-03-11T01:41:23.045Z,990.7
2023-03-11T01:46:23.185Z,990.7
2023-03-11T01:51:23.011Z,990.8
2023-03-11T01:56:22.978Z,990.9
2023-03-11T02:01:22.924Z,990.9
2023-03-11T02:06:22.937Z,990.8
2023-03-11T02:11:23.153Z,990.7
2023-03-11T02:16:23.082Z,990.7
2023-03-11T02:21:23.719Z,990.7
2023-03-11T02:26:23.301Z,990.8
2023-03-11T02:31:22.913Z,990.9
2023-03-11T02:36:23.379Z,990.8
2023-03-11T02:41:22.814Z,990.7
2023-03-11T02:46:23.748Z,990.8
2023-03-11T02:51:28.904Z,990.9
2023-03-11T02:56:28.902Z,991.0
2023-03-11T03:01:28.989Z,991.0
2023-03-11T03:06:28.818Z,991.0
2023-03-11T03:11:28.705Z,990.9
2023-03-11T03:16:28.957Z,991.1
2023-03-11T03:21:28.755Z,991.0
2023-03-11T03:26:28.840Z,991.1
2023-03-11T03:31:29.194Z,991.0
2023-03-11T03:36:28.757Z,991.1
2023-03-11T03:41:28.807Z,991.3
2023-03-11T03:46:29.148Z,991.3
2023-03-11T03:51:28.795Z,991.2
2023-03-11T03:56:28.626Z,991.2
2023-03-11T04:01:28.914Z,991.2
2023-03-11T04:06:28.837Z,991.3
2023-03-11T04:11:28.681Z,991.2
2023-03-11T04:16:28.947Z,991.2
2023-03-11T04:21:28.751Z,991.2
2023-03-11T04:26:28.713Z,991.3
2023-03-11T04:31:28.886Z,991.1
2023-03-11T04:36:28.594Z,991.3
2023-03-11T04:41:28.626Z,991.2
2023-03-11T04:46:28.928Z,991.2
2023-03-11T04:51:28.585Z,991.2
2023-03-11T04:56:28.582Z,991.3
2023-03-11T05:01:28.749Z,991.3
2023-03-11T05:06:28.590Z,991.4
2023-03-11T05:11:28.535Z,991.3
2023-03-11T05:16:28.722Z,991.4
2023-03-11T05:21:28.537Z,991.4
2023-03-11T05:26:28.555Z,991.5
2023-03-11T05:31:28.738Z,991.5
2023-03-11T05:36:28.536Z,991.6
2023-03-11T05:41:28.470Z,991.6
2023-03-11T05:46:28.730Z,991.9
2023-03-11T05:51:28.498Z,991.9
2023-03-11T05:56:28.610Z,992.1
2023-03-11T06:01:28.805Z,992.2
2023-03-11T06:06:28.507Z,992.2
2023-03-11T06:11:28.793Z,992.3
2023-03-11T06:16:28.696Z,992.5
2023-03-11T06:21:28.633Z,992.5
2023-03-11T06:26:28.479Z,992.7
2023-03-11T06:31:28.559Z,992.7
2023-03-11T06:36:28.452Z,992.8
2023-03-11T06:41:28.509Z,993.0
2023-03-11T06:46:28.595Z,993.1
2023-03-11T06:51:28.416Z,993.1
2023-03-11T06:56:28.384Z,993.1
2023-03-11T07:01:28.668Z,993.3
2023-03-11T07:06:28.309Z,993.4
2023-03-11T07:11:28.411Z,993.5
2023-03-11T07:16:28.562Z,993.6
2023-03-11T07:21:28.302Z,993.6
2023-03-11T07:26:28.348Z,993.6
2023-03-11T07:31:28.533Z,993.6
2023-03-11T07:36:28.369Z,993.8
2023-03-11T07:41:28.401Z,993.8
2023-03-11T07:46:28.696Z,993.8
2023-03-11T07:51:28.399Z,993.9
2023-03-11T07:56:28.280Z,993.9
2023-03-11T08:01:28.270Z,994.0
2023-03-11T08:06:28.339Z,994.1
2023-03-11T08:11:28.227Z,994.1
2023-03-11T08:16:28.700Z,994.2
2023-03-11T08:21:28.332Z,994.2
2023-03-11T08:26:28.193Z,994.2
2023-03-11T08:31:28.250Z,994.4
2023-03-11T08:36:28.217Z,994.5
2023-03-11T08:41:28.351Z,994.5
2023-03-11T08:46:28.471Z,994.6
2023-03-11T08:51:28.152Z,994.6
2023-03-11T08:56:28.216Z,994.7
2023-03-11T09:01:28.368Z,994.8
2023-03-11T09:06:28.384Z,994.8
2023-03-11T09:11:28.319Z,994.8
2023-03-11T09:16:28.380Z,994.9
2023-03-11T09:21:28.320Z,995.1
2023-03-11T09:26:28.324Z,995.1
2023-03-11T09:31:28.207Z,995.2
2023-03-11T09:36:29.008Z,995.3
2023-03-11T09:41:28.203Z,995.3
2023-03-11T09:46:28.515Z,995.4
2023-03-11T09:51:28.446Z,995.4
2023-03-11T09:56:28.199Z,995.5
2023-03-11T10:01:28.213Z,995.5
2023-03-11T10:06:28.235Z,995.5
2023-03-11T10:11:28.255Z,995.7
2023-03-11T10:16:28.338Z,995.8
2023-03-11T10:21:28.305Z,995.9
2023-03-11T10:26:28.060Z,996.1
2023-03-11T10:31:28.134Z,996.1
2023-03-11T10:36:28.406Z,996.2
2023-03-11T10:41:28.169Z,996.4
2023-03-11T10:46:27.937Z,996.4
2023-03-11T10:51:27.927Z,996.6
2023-03-11T10:56:28.418Z,996.8
2023-03-11T11:01:27.954Z,996.8
2023-03-11T11:06:28.869Z,996.9
2023-03-11T11:11:28.011Z,997.0
2023-03-11T11:16:28.118Z,997.2
2023-03-11T11:21:28.061Z,997.3
2023-03-11T11:26:28.046Z,997.5
2023-03-11T11:31:28.314Z,997.8
2023-03-11T11:36:28.198Z,997.9
2023-03-11T11:41:27.914Z,998.1
2023-03-11T11:46:27.892Z,998.3
2023-03-11T11:51:28.093Z,998.4
2023-03-11T11:56:27.848Z,998.5
2023-03-11T12:01:27.937Z,998.6
2023-03-11T12:06:27.929Z,998.8
2023-03-11T12:11:28.724Z,999.0
2023-03-11T12:16:27.857Z,999.1
2023-03-11T12:21:27.899Z,999.1
2023-03-11T12:26:28.127Z,999.2
2023-03-11T12:31:27.899Z,999.4
2023-03-11T12:36:27.844Z,999.6
2023-03-11T12:41:27.764Z,999.8
2023-03-11T12:46:27.864Z,999.9
2023-03-11T12:51:28.068Z,1000.0
2023-03-11T12:56:27.798Z,1000.2
2023-03-11T13:01:28.006Z,1000.3
2023-03-11T13:06:28.517Z,1000.5
2023-03-11T13:11:28.072Z,1000.6
2023-03-11T13:16:27.769Z,1000.8
2023-03-11T13:21:27.778Z,1000.9
2023-03-11T13:31:28.014Z,1001.0
2023-03-11T13:36:27.577Z,1001.5
2023-03-11T13:41:28.189Z,1001.6
2023-03-11T13:46:27.734Z,1001.7
2023-03-11T13:51:27.802Z,1001.9
2023-03-11T13:56:27.559Z,1002.0
2023-03-11T14:01:27.718Z,1002.1
2023-03-11T14:06:27.645Z,1002.3
2023-03-11T14:11:27.889Z,1002.3
2023-03-11T14:16:27.655Z,1002.5
2023-03-11T14:21:27.607Z,1002.7
2023-03-11T14:26:27.767Z,1002.9
2023-03-11T14:31:28.561Z,1002.8
2023-03-11T14:36:27.478Z,1003.0
2023-03-11T14:41:27.524Z,1003.1
2023-03-11T14:46:27.677Z,1003.2
2023-03-11T14:51:28.334Z,1003.3
2023-03-11T14:56:27.483Z,1003.5
2023-03-11T15:01:28.303Z,1003.5
2023-03-11T15:06:27.590Z,1003.6
2023-03-11T15:11:27.573Z,1003.7
2023-03-11T15:16:27.804Z,1003.7
2023-03-11T15:21:27.542Z,1003.9
2023-03-11T15:26:27.762Z,1004.0
2023-03-11T15:31:27.790Z,1004.1
2023-03-11T15:36:28.336Z,1004.1
2023-03-11T15:41:27.449Z,1004.3
2023-03-11T15:46:27.460Z,1004.4
2023-03-11T15:51:27.392Z,1004.5
2023-03-11T15:56:27.425Z,1004.5
2023-03-11T16:01:27.971Z,1004.6
2023-03-11T16:06:27.732Z,1004.7
2023-03-11T16:11:27.808Z,1004.9
2023-03-11T16:16:28.147Z,1005.0
2023-03-11T16:21:27.843Z,1005.0
2023-03-11T16:26:27.658Z,1005.3
2023-03-11T16:31:27.844Z,1005.4
2023-03-11T16:36:27.293Z,1005.4
2023-03-11T16:41:27.303Z,1005.5
2023-03-11T16:46:28.458Z,1005.7
2023-03-11T16:51:27.407Z,1005.9
2023-03-11T16:56:27.281Z,1005.9
2023-03-11T17:01:27.310Z,1006.2
2023-03-11T17:06:27.267Z,1006.3
2023-03-11T17:11:27.269Z,1006.5
2023-03-11T17:16:27.477Z,1006.6
2023-03-11T17:21:27.362Z,1006.7
2023-03-11T17:26:27.394Z,1006.8
2023-03-11T17:31:27.490Z,1007.0
2023-03-11T17:36:27.239Z,1007.0
2023-03-11T17:41:27.397Z,1007.2
2023-03-11T17:46:27.474Z,1007.2
2023-03-11T17:51:27.268Z,1007.4
2023-03-11T17:56:27.278Z,1007.5
2023-03-11T18:01:27.349Z,1007.6
2023-03-11T18:06:27.479Z,1007.7
2023-03-11T18:11:27.780Z,1007.9
2023-03-11T18:16:27.526Z,1008.0
2023-03-11T18:21:27.437Z,1008.1
2023-03-11T18:26:27.180Z,1008.2
2023-03-11T18:31:27.439Z,1008.2
2023-03-11T18:36:27.336Z,1008.4
2023-03-11T18:41:27.146Z,1008.5
2023-03-11T18:46:28.012Z,1008.5
2023-03-11T18:51:28.232Z,1008.6
2023-03-11T18:56:27.203Z,1008.7
2023-03-11T19:01:28.368Z,1008.9
2023-03-11T19:06:27.128Z,1009.0
2023-03-11T19:11:27.012Z,1009.0
2023-03-11T19:16:27.999Z,1009.1
2023-03-11T19:21:26.992Z,1009.1
2023-03-11T19:26:43.212Z,1009.2
2023-03-11T19:31:27.270Z,1009.3
2023-03-11T19:36:26.968Z,1009.4
2023-03-11T19:41:27.013Z,1009.6
2023-03-11T19:46:27.270Z,1009.5
2023-03-11T19:51:32.963Z,1009.7
2023-03-11T19:56:26.903Z,1009.7
2023-03-11T20:01:26.976Z,1009.8
2023-03-11T20:06:27.082Z,1009.8
2023-03-11T20:11:27.321Z,1009.9
2023-03-11T20:16:27.076Z,1009.9
2023-03-11T20:21:27.701Z,1009.9
2023-03-11T20:26:27.669Z,1009.9
2023-03-11T20:31:27.793Z,1009.9
2023-03-11T20:36:27.633Z,1010.0
2023-03-11T20:41:27.591Z,1010.0
2023-03-11T20:46:26.950Z,1010.0
2023-03-11T20:51:27.730Z,1010.1
2023-03-11T20:56:26.836Z,1010.2
2023-03-11T21:01:26.845Z,1010.2
2023-03-11T21:06:26.940Z,1010.2
2023-03-11T21:11:27.714Z,1010.3
2023-03-11T21:16:27.505Z,1010.4
2023-03-11T21:21:28.274Z,1010.3
2023-03-11T21:26:26.841Z,1010.4
2023-03-11T21:31:29.057Z,1010.5
2023-03-11T21:36:27.207Z,1010.4
2023-03-11T21:41:26.769Z,1010.4
2023-03-11T21:46:27.077Z,1010.5
2023-03-11T21:51:27.667Z,1010.5
2023-03-11T21:56:27.013Z,1010.6
2023-03-11T22:01:26.891Z,1010.6
2023-03-11T22:06:27.161Z,1010.7
2023-03-11T22:11:27.032Z,1010.7
2023-03-11T22:16:28.200Z,1010.8
2023-03-11T22:21:28.337Z,1010.9
2023-03-11T22:26:26.719Z,1010.8
2023-03-11T22:31:26.763Z,1010.9
2023-03-11T22:36:26.892Z,1010.8
2023-03-11T22:41:26.724Z,1010.9
2023-03-11T22:46:27.833Z,1010.9
2023-03-11T22:51:26.816Z,1010.9
2023-03-11T22:56:26.781Z,1011.0
2023-03-11T23:01:26.578Z,1011.1
2023-03-11T23:06:26.525Z,1011.1
2023-03-11T23:11:26.540Z,1011.1
2023-03-11T23:16:26.603Z,1011.1
2023-03-11T23:21:26.627Z,1011.0
2023-03-11T23:26:26.685Z,1011.1
2023-03-11T23:31:26.710Z,1011.1
2023-03-11T23:36:26.746Z,1011.2
2023-03-11T23:41:26.567Z,1011.3
2023-03-11T23:46:26.859Z,1011.4
2023-03-11T23:51:26.644Z,1011.4
2023-03-11T23:56:26.571Z,1011.5
